sensor_id;sensor_type;location;lat;lon;timestamp;P1;durP1;ratioP1;P2;durP2;ratioP2
20928;SDS011;21895;47.072;15.132;2023-05-02T00:00:51;7.63;;;5.63;;
20928;SDS011;21895;47.072;15.132;2023-05-02T00:03:18;8.17;;;5.70;;
20928;SDS011;21895;47.072;15.132;2023-05-02T00:05:44;11.80;;;6.27;;
20928;SDS011;21895;47.072;15.132;2023-05-02T00:08:11;9.77;;;5.60;;
20928;SDS011;21895;47.072;15.132;2023-05-02T00:10:37;8.47;;;5.57;;
20928;SDS011;21895;47.072;15.132;2023-05-02T00:13:04;8.77;;;5.70;;
20928;SDS011;21895;47.072;15.132;2023-05-02T00:15:31;7.73;;;5.60;;
20928;SDS011;21895;47.072;15.132;2023-05-02T00:17:57;9.07;;;6.17;;
20928;SDS011;21895;47.072;15.132;2023-05-02T00:20:24;12.33;;;6.10;;
20928;SDS011;21895;47.072;15.132;2023-05-02T00:22:51;8.10;;;5.70;;
20928;SDS011;21895;47.072;15.132;2023-05-02T00:25:17;7.63;;;5.50;;
20928;SDS011;21895;47.072;15.132;2023-05-02T00:27:44;10.27;;;6.10;;
20928;SDS011;21895;47.072;15.132;2023-05-02T00:30:11;9.70;;;6.53;;
20928;SDS011;21895;47.072;15.132;2023-05-02T00:32:38;11.30;;;5.73;;
20928;SDS011;21895;47.072;15.132;2023-05-02T00:35:05;7.70;;;5.70;;
20928;SDS011;21895;47.072;15.132;2023-05-02T00:37:32;11.30;;;6.07;;
20928;SDS011;21895;47.072;15.132;2023-05-02T00:39:59;12.77;;;6.33;;
20928;SDS011;21895;47.072;15.132;2023-05-02T00:42:26;9.33;;;6.00;;
20928;SDS011;21895;47.072;15.132;2023-05-02T00:44:56;6.70;;;5.37;;
20928;SDS011;21895;47.072;15.132;2023-05-02T00:47:22;8.20;;;6.10;;
20928;SDS011;21895;47.072;15.132;2023-05-02T00:49:49;9.70;;;6.23;;
20928;SDS011;21895;47.072;15.132;2023-05-02T00:52:16;10.80;;;6.20;;
20928;SDS011;21895;47.072;15.132;2023-05-02T00:54:43;8.97;;;6.20;;
20928;SDS011;21895;47.072;15.132;2023-05-02T00:57:09;11.40;;;6.10;;
20928;SDS011;21895;47.072;15.132;2023-05-02T00:59:36;9.27;;;6.03;;
20928;SDS011;21895;47.072;15.132;2023-05-02T01:02:10;10.20;;;5.93;;
20928;SDS011;21895;47.072;15.132;2023-05-02T01:05:36;10.30;;;6.53;;
20928;SDS011;21895;47.072;15.132;2023-05-02T01:08:24;15.03;;;6.80;;
20928;SDS011;21895;47.072;15.132;2023-05-02T01:11:13;12.77;;;6.23;;
20928;SDS011;21895;47.072;15.132;2023-05-02T01:13:47;11.90;;;6.30;;
20928;SDS011;21895;47.072;15.132;2023-05-02T01:16:17;11.83;;;6.57;;
20928;SDS011;21895;47.072;15.132;2023-05-02T01:18:48;10.23;;;6.43;;
20928;SDS011;21895;47.072;15.132;2023-05-02T01:21:17;11.60;;;6.57;;
20928;SDS011;21895;47.072;15.132;2023-05-02T01:24:04;11.67;;;6.20;;
20928;SDS011;21895;47.072;15.132;2023-05-02T01:27:06;9.27;;;6.13;;
20928;SDS011;21895;47.072;15.132;2023-05-02T01:29:49;11.53;;;6.37;;
20928;SDS011;21895;47.072;15.132;2023-05-02T01:32:19;9.90;;;6.03;;
20928;SDS011;21895;47.072;15.132;2023-05-02T01:34:49;8.87;;;6.13;;
20928;SDS011;21895;47.072;15.132;2023-05-02T01:37:19;9.77;;;6.47;;
20928;SDS011;21895;47.072;15.132;2023-05-02T01:39:48;10.47;;;6.33;;
20928;SDS011;21895;47.072;15.132;2023-05-02T01:42:18;9.47;;;6.17;;
20928;SDS011;21895;47.072;15.132;2023-05-02T01:44:47;14.67;;;6.57;;
20928;SDS011;21895;47.072;15.132;2023-05-02T01:47:17;11.50;;;6.40;;
20928;SDS011;21895;47.072;15.132;2023-05-02T01:49:47;10.53;;;6.27;;
20928;SDS011;21895;47.072;15.132;2023-05-02T01:52:14;10.63;;;6.33;;
20928;SDS011;21895;47.072;15.132;2023-05-02T01:54:46;11.20;;;5.90;;
20928;SDS011;21895;47.072;15.132;2023-05-02T01:57:16;9.40;;;6.50;;
20928;SDS011;21895;47.072;15.132;2023-05-02T01:59:43;9.47;;;6.03;;
20928;SDS011;21895;47.072;15.132;2023-05-02T02:02:13;9.13;;;6.43;;
20928;SDS011;21895;47.072;15.132;2023-05-02T02:04:42;8.53;;;6.23;;
20928;SDS011;21895;47.072;15.132;2023-05-02T02:07:12;9.87;;;6.50;;
20928;SDS011;21895;47.072;15.132;2023-05-02T02:09:39;9.80;;;6.57;;
20928;SDS011;21895;47.072;15.132;2023-05-02T02:12:16;9.47;;;6.07;;
20928;SDS011;21895;47.072;15.132;2023-05-02T02:15:28;10.67;;;5.70;;
20928;SDS011;21895;47.072;15.132;2023-05-02T02:18:04;15.80;;;6.27;;
20928;SDS011;21895;47.072;15.132;2023-05-02T02:20:38;15.10;;;6.23;;
20928;SDS011;21895;47.072;15.132;2023-05-02T02:23:09;8.90;;;5.90;;
20928;SDS011;21895;47.072;15.132;2023-05-02T02:25:39;8.20;;;6.33;;
20928;SDS011;21895;47.072;15.132;2023-05-02T02:28:08;9.40;;;6.10;;
20928;SDS011;21895;47.072;15.132;2023-05-02T02:30:34;7.43;;;5.80;;
20928;SDS011;21895;47.072;15.132;2023-05-02T02:33:01;7.20;;;5.57;;
20928;SDS011;21895;47.072;15.132;2023-05-02T02:35:32;9.77;;;6.47;;
20928;SDS011;21895;47.072;15.132;2023-05-02T02:38:49;8.57;;;6.10;;
20928;SDS011;21895;47.072;15.132;2023-05-02T02:42:38;8.13;;;5.77;;
20928;SDS011;21895;47.072;15.132;2023-05-02T02:46:49;8.67;;;5.40;;
20928;SDS011;21895;47.072;15.132;2023-05-02T02:50:35;7.97;;;5.70;;
20928;SDS011;21895;47.072;15.132;2023-05-02T02:53:56;13.93;;;6.50;;
20928;SDS011;21895;47.072;15.132;2023-05-02T02:57:02;8.00;;;6.00;;
20928;SDS011;21895;47.072;15.132;2023-05-02T03:00:07;11.30;;;5.70;;
20928;SDS011;21895;47.072;15.132;2023-05-02T03:02:43;7.37;;;5.67;;
20928;SDS011;21895;47.072;15.132;2023-05-02T03:05:12;11.30;;;6.80;;
20928;SDS011;21895;47.072;15.132;2023-05-02T03:07:40;8.13;;;5.67;;
20928;SDS011;21895;47.072;15.132;2023-05-02T03:10:07;10.03;;;5.83;;
20928;SDS011;21895;47.072;15.132;2023-05-02T03:12:34;10.73;;;6.10;;
20928;SDS011;21895;47.072;15.132;2023-05-02T03:19:57;9.60;;;6.00;;
20928;SDS011;21895;47.072;15.132;2023-05-02T03:22:24;8.63;;;6.20;;
20928;SDS011;21895;47.072;15.132;2023-05-02T03:24:50;8.60;;;6.00;;
20928;SDS011;21895;47.072;15.132;2023-05-02T03:27:17;8.60;;;5.90;;
20928;SDS011;21895;47.072;15.132;2023-05-02T03:29:43;9.37;;;6.53;;
20928;SDS011;21895;47.072;15.132;2023-05-02T03:32:10;8.87;;;6.73;;
20928;SDS011;21895;47.072;15.132;2023-05-02T03:34:36;10.07;;;7.10;;
20928;SDS011;21895;47.072;15.132;2023-05-02T03:37:03;10.13;;;7.13;;
20928;SDS011;21895;47.072;15.132;2023-05-02T03:39:32;9.03;;;6.60;;
20928;SDS011;21895;47.072;15.132;2023-05-02T03:41:59;9.87;;;6.37;;
20928;SDS011;21895;47.072;15.132;2023-05-02T03:44:26;10.77;;;6.50;;
20928;SDS011;21895;47.072;15.132;2023-05-02T03:46:52;8.67;;;6.23;;
20928;SDS011;21895;47.072;15.132;2023-05-02T03:49:19;10.03;;;6.33;;
20928;SDS011;21895;47.072;15.132;2023-05-02T03:51:46;8.37;;;6.27;;
20928;SDS011;21895;47.072;15.132;2023-05-02T03:54:12;9.20;;;6.77;;
20928;SDS011;21895;47.072;15.132;2023-05-02T03:56:39;9.57;;;6.33;;
20928;SDS011;21895;47.072;15.132;2023-05-02T03:59:08;8.87;;;6.17;;
20928;SDS011;21895;47.072;15.132;2023-05-02T04:01:34;10.10;;;6.73;;
20928;SDS011;21895;47.072;15.132;2023-05-02T04:04:01;9.50;;;6.47;;
20928;SDS011;21895;47.072;15.132;2023-05-02T04:06:27;12.33;;;7.13;;
20928;SDS011;21895;47.072;15.132;2023-05-02T04:08:54;9.47;;;6.40;;
20928;SDS011;21895;47.072;15.132;2023-05-02T04:11:22;9.67;;;6.87;;
20928;SDS011;21895;47.072;15.132;2023-05-02T04:13:51;22.73;;;7.57;;
20928;SDS011;21895;47.072;15.132;2023-05-02T04:16:18;15.03;;;6.90;;
20928;SDS011;21895;47.072;15.132;2023-05-02T04:18:45;16.77;;;7.43;;
20928;SDS011;21895;47.072;15.132;2023-05-02T04:21:11;17.50;;;8.13;;
20928;SDS011;21895;47.072;15.132;2023-05-02T04:23:38;19.27;;;7.77;;
20928;SDS011;21895;47.072;15.132;2023-05-02T04:26:07;21.03;;;7.67;;
20928;SDS011;21895;47.072;15.132;2023-05-02T04:28:34;15.93;;;8.27;;
20928;SDS011;21895;47.072;15.132;2023-05-02T04:31:01;29.87;;;7.57;;
20928;SDS011;21895;47.072;15.132;2023-05-02T04:33:28;17.77;;;7.80;;
20928;SDS011;21895;47.072;15.132;2023-05-02T04:35:56;22.27;;;8.90;;
20928;SDS011;21895;47.072;15.132;2023-05-02T04:38:22;19.93;;;8.20;;
20928;SDS011;21895;47.072;15.132;2023-05-02T04:40:49;21.40;;;7.77;;
20928;SDS011;21895;47.072;15.132;2023-05-02T04:43:19;17.47;;;7.13;;
20928;SDS011;21895;47.072;15.132;2023-05-02T04:45:49;11.50;;;7.57;;
20928;SDS011;21895;47.072;15.132;2023-05-02T04:48:16;13.03;;;8.03;;
20928;SDS011;21895;47.072;15.132;2023-05-02T04:50:43;10.90;;;7.40;;
20928;SDS011;21895;47.072;15.132;2023-05-02T04:53:11;14.10;;;8.43;;
20928;SDS011;21895;47.072;15.132;2023-05-02T04:55:38;16.63;;;8.13;;
20928;SDS011;21895;47.072;15.132;2023-05-02T04:58:04;12.50;;;8.00;;
20928;SDS011;21895;47.072;15.132;2023-05-02T05:00:31;13.63;;;7.60;;
20928;SDS011;21895;47.072;15.132;2023-05-02T05:02:57;15.47;;;8.00;;
20928;SDS011;21895;47.072;15.132;2023-05-02T05:05:26;14.87;;;7.83;;
20928;SDS011;21895;47.072;15.132;2023-05-02T05:07:53;9.30;;;6.87;;
20928;SDS011;21895;47.072;15.132;2023-05-02T05:10:19;15.53;;;6.97;;
20928;SDS011;21895;47.072;15.132;2023-05-02T05:12:46;10.47;;;6.73;;
20928;SDS011;21895;47.072;15.132;2023-05-02T05:15:14;12.70;;;7.23;;
20928;SDS011;21895;47.072;15.132;2023-05-02T05:17:40;9.27;;;6.67;;
20928;SDS011;21895;47.072;15.132;2023-05-02T05:20:07;11.50;;;7.20;;
20928;SDS011;21895;47.072;15.132;2023-05-02T05:22:41;11.63;;;7.67;;
20928;SDS011;21895;47.072;15.132;2023-05-02T05:25:07;9.53;;;7.20;;
20928;SDS011;21895;47.072;15.132;2023-05-02T05:27:35;10.07;;;6.90;;
20928;SDS011;21895;47.072;15.132;2023-05-02T05:30:05;12.17;;;7.17;;
20928;SDS011;21895;47.072;15.132;2023-05-02T05:32:33;11.30;;;6.37;;
20928;SDS011;21895;47.072;15.132;2023-05-02T05:35:00;13.20;;;6.60;;
20928;SDS011;21895;47.072;15.132;2023-05-02T05:37:27;10.90;;;7.53;;
20928;SDS011;21895;47.072;15.132;2023-05-02T05:39:53;9.40;;;6.83;;
20928;SDS011;21895;47.072;15.132;2023-05-02T05:42:20;9.03;;;6.43;;
20928;SDS011;21895;47.072;15.132;2023-05-02T05:44:46;10.60;;;6.80;;
20928;SDS011;21895;47.072;15.132;2023-05-02T05:47:17;11.93;;;7.37;;
20928;SDS011;21895;47.072;15.132;2023-05-02T05:49:47;11.17;;;7.10;;
20928;SDS011;21895;47.072;15.132;2023-05-02T05:52:18;9.63;;;6.87;;
20928;SDS011;21895;47.072;15.132;2023-05-02T05:54:45;10.33;;;7.10;;
20928;SDS011;21895;47.072;15.132;2023-05-02T05:57:11;9.93;;;7.13;;
20928;SDS011;21895;47.072;15.132;2023-05-02T05:59:38;10.80;;;6.97;;
20928;SDS011;21895;47.072;15.132;2023-05-02T06:02:05;13.07;;;7.50;;
20928;SDS011;21895;47.072;15.132;2023-05-02T06:04:31;10.97;;;7.27;;
20928;SDS011;21895;47.072;15.132;2023-05-02T06:06:58;12.10;;;7.37;;
20928;SDS011;21895;47.072;15.132;2023-05-02T06:09:25;18.03;;;9.03;;
20928;SDS011;21895;47.072;15.132;2023-05-02T06:11:52;14.97;;;9.30;;
20928;SDS011;21895;47.072;15.132;2023-05-02T06:14:18;14.00;;;8.23;;
20928;SDS011;21895;47.072;15.132;2023-05-02T06:16:45;17.73;;;8.77;;
20928;SDS011;21895;47.072;15.132;2023-05-02T06:19:11;17.17;;;8.97;;
20928;SDS011;21895;47.072;15.132;2023-05-02T06:21:38;21.47;;;9.67;;
20928;SDS011;21895;47.072;15.132;2023-05-02T06:24:04;18.33;;;9.30;;
20928;SDS011;21895;47.072;15.132;2023-05-02T06:26:33;18.90;;;9.00;;
20928;SDS011;21895;47.072;15.132;2023-05-02T06:29:00;23.53;;;9.03;;
20928;SDS011;21895;47.072;15.132;2023-05-02T06:31:28;17.23;;;8.53;;
20928;SDS011;21895;47.072;15.132;2023-05-02T06:33:55;21.07;;;8.83;;
20928;SDS011;21895;47.072;15.132;2023-05-02T06:36:21;19.27;;;8.17;;
20928;SDS011;21895;47.072;15.132;2023-05-02T06:38:48;17.17;;;7.57;;
20928;SDS011;21895;47.072;15.132;2023-05-02T06:41:14;21.23;;;10.60;;
20928;SDS011;21895;47.072;15.132;2023-05-02T06:43:43;20.40;;;11.97;;
20928;SDS011;21895;47.072;15.132;2023-05-02T06:46:10;15.60;;;9.40;;
20928;SDS011;21895;47.072;15.132;2023-05-02T06:48:36;15.03;;;8.43;;
20928;SDS011;21895;47.072;15.132;2023-05-02T06:51:03;17.43;;;8.03;;
20928;SDS011;21895;47.072;15.132;2023-05-02T06:53:30;14.03;;;7.63;;
20928;SDS011;21895;47.072;15.132;2023-05-02T06:55:58;15.50;;;7.70;;
20928;SDS011;21895;47.072;15.132;2023-05-02T06:58:25;15.50;;;6.57;;
20928;SDS011;21895;47.072;15.132;2023-05-02T07:00:51;16.23;;;6.67;;
20928;SDS011;21895;47.072;15.132;2023-05-02T07:03:18;9.03;;;5.53;;
20928;SDS011;21895;47.072;15.132;2023-05-02T07:05:44;10.13;;;5.50;;
20928;SDS011;21895;47.072;15.132;2023-05-02T07:08:11;10.47;;;6.03;;
20928;SDS011;21895;47.072;15.132;2023-05-02T07:10:37;9.00;;;6.27;;
20928;SDS011;21895;47.072;15.132;2023-05-02T07:13:04;10.80;;;6.03;;
20928;SDS011;21895;47.072;15.132;2023-05-02T07:15:30;12.63;;;7.13;;
20928;SDS011;21895;47.072;15.132;2023-05-02T07:17:57;10.60;;;7.53;;
20928;SDS011;21895;47.072;15.132;2023-05-02T07:20:23;13.57;;;9.67;;
20928;SDS011;21895;47.072;15.132;2023-05-02T07:22:50;14.50;;;8.10;;
20928;SDS011;21895;47.072;15.132;2023-05-02T07:25:17;12.17;;;6.20;;
20928;SDS011;21895;47.072;15.132;2023-05-02T07:27:43;12.57;;;7.63;;
20928;SDS011;21895;47.072;15.132;2023-05-02T07:30:10;11.67;;;6.90;;
20928;SDS011;21895;47.072;15.132;2023-05-02T07:32:37;14.67;;;8.20;;
20928;SDS011;21895;47.072;15.132;2023-05-02T07:35:04;10.37;;;7.30;;
20928;SDS011;21895;47.072;15.132;2023-05-02T07:37:32;9.23;;;6.33;;
20928;SDS011;21895;47.072;15.132;2023-05-02T07:40:02;14.27;;;7.77;;
20928;SDS011;21895;47.072;15.132;2023-05-02T07:42:30;10.73;;;6.97;;
20928;SDS011;21895;47.072;15.132;2023-05-02T07:44:57;11.07;;;6.47;;
20928;SDS011;21895;47.072;15.132;2023-05-02T07:47:24;11.30;;;5.93;;
20928;SDS011;21895;47.072;15.132;2023-05-02T07:49:51;10.20;;;5.60;;
20928;SDS011;21895;47.072;15.132;2023-05-02T07:52:19;8.45;;;5.50;;
20928;SDS011;21895;47.072;15.132;2023-05-02T07:54:49;8.07;;;5.70;;
20928;SDS011;21895;47.072;15.132;2023-05-02T07:57:16;12.97;;;6.67;;
20928;SDS011;21895;47.072;15.132;2023-05-02T07:59:43;16.10;;;6.73;;
20928;SDS011;21895;47.072;15.132;2023-05-02T08:02:10;14.83;;;7.43;;
20928;SDS011;21895;47.072;15.132;2023-05-02T08:04:38;12.70;;;6.55;;
20928;SDS011;21895;47.072;15.132;2023-05-02T08:07:05;9.13;;;6.37;;
20928;SDS011;21895;47.072;15.132;2023-05-02T08:09:32;11.63;;;6.68;;
20928;SDS011;21895;47.072;15.132;2023-05-02T08:11:58;13.93;;;6.47;;
20928;SDS011;21895;47.072;15.132;2023-05-02T08:14:27;8.97;;;5.47;;
20928;SDS011;21895;47.072;15.132;2023-05-02T08:16:53;9.63;;;5.93;;
20928;SDS011;21895;47.072;15.132;2023-05-02T08:19:20;10.55;;;5.87;;
20928;SDS011;21895;47.072;15.132;2023-05-02T08:21:46;9.30;;;6.00;;
20928;SDS011;21895;47.072;15.132;2023-05-02T08:24:13;14.27;;;6.55;;
20928;SDS011;21895;47.072;15.132;2023-05-02T08:26:39;12.80;;;6.43;;
20928;SDS011;21895;47.072;15.132;2023-05-02T08:29:06;9.75;;;5.62;;
20928;SDS011;21895;47.072;15.132;2023-05-02T08:31:32;8.43;;;5.20;;
20928;SDS011;21895;47.072;15.132;2023-05-02T08:33:59;9.43;;;5.35;;
20928;SDS011;21895;47.072;15.132;2023-05-02T08:36:25;11.25;;;5.53;;
20928;SDS011;21895;47.072;15.132;2023-05-02T08:38:53;10.67;;;5.93;;
20928;SDS011;21895;47.072;15.132;2023-05-02T08:41:19;7.65;;;5.75;;
20928;SDS011;21895;47.072;15.132;2023-05-02T08:43:46;10.13;;;5.90;;
20928;SDS011;21895;47.072;15.132;2023-05-02T08:46:14;7.62;;;5.47;;
20928;SDS011;21895;47.072;15.132;2023-05-02T08:48:42;7.87;;;5.40;;
20928;SDS011;21895;47.072;15.132;2023-05-02T08:51:13;8.23;;;5.47;;
20928;SDS011;21895;47.072;15.132;2023-05-02T08:53:41;7.40;;;5.43;;
20928;SDS011;21895;47.072;15.132;2023-05-02T08:56:09;8.43;;;5.35;;
20928;SDS011;21895;47.072;15.132;2023-05-02T08:58:38;7.27;;;5.17;;
20928;SDS011;21895;47.072;15.132;2023-05-02T09:01:09;6.43;;;5.07;;
20928;SDS011;21895;47.072;15.132;2023-05-02T09:03:42;7.53;;;5.10;;
20928;SDS011;21895;47.072;15.132;2023-05-02T09:06:19;12.65;;;5.60;;
20928;SDS011;21895;47.072;15.132;2023-05-02T09:08:48;9.93;;;5.65;;
20928;SDS011;21895;47.072;15.132;2023-05-02T09:11:19;9.13;;;5.63;;
20928;SDS011;21895;47.072;15.132;2023-05-02T09:13:49;10.00;;;4.80;;
20928;SDS011;21895;47.072;15.132;2023-05-02T09:16:20;10.63;;;4.90;;
20928;SDS011;21895;47.072;15.132;2023-05-02T09:18:50;12.00;;;5.05;;
20928;SDS011;21895;47.072;15.132;2023-05-02T09:21:22;9.07;;;4.85;;
20928;SDS011;21895;47.072;15.132;2023-05-02T09:23:54;10.10;;;4.68;;
20928;SDS011;21895;47.072;15.132;2023-05-02T09:26:29;8.50;;;4.95;;
20928;SDS011;21895;47.072;15.132;2023-05-02T09:29:00;8.70;;;5.18;;
20928;SDS011;21895;47.072;15.132;2023-05-02T09:31:32;7.53;;;5.00;;
20928;SDS011;21895;47.072;15.132;2023-05-02T09:34:07;8.20;;;4.90;;
20928;SDS011;21895;47.072;15.132;2023-05-02T09:36:41;9.77;;;5.32;;
20928;SDS011;21895;47.072;15.132;2023-05-02T09:39:15;8.00;;;4.97;;
20928;SDS011;21895;47.072;15.132;2023-05-02T09:41:46;8.30;;;5.50;;
20928;SDS011;21895;47.072;15.132;2023-05-02T09:44:14;8.68;;;4.60;;
20928;SDS011;21895;47.072;15.132;2023-05-02T09:46:50;7.18;;;4.70;;
20928;SDS011;21895;47.072;15.132;2023-05-02T09:49:37;7.68;;;4.95;;
20928;SDS011;21895;47.072;15.132;2023-05-02T09:52:13;8.38;;;5.62;;
20928;SDS011;21895;47.072;15.132;2023-05-02T09:54:48;9.07;;;5.28;;
20928;SDS011;21895;47.072;15.132;2023-05-02T09:57:18;11.40;;;5.30;;
20928;SDS011;21895;47.072;15.132;2023-05-02T09:59:54;11.63;;;5.22;;
20928;SDS011;21895;47.072;15.132;2023-05-02T10:02:23;7.12;;;4.85;;
20928;SDS011;21895;47.072;15.132;2023-05-02T10:04:52;8.00;;;4.97;;
20928;SDS011;21895;47.072;15.132;2023-05-02T10:07:21;5.62;;;4.47;;
20928;SDS011;21895;47.072;15.132;2023-05-02T10:09:48;5.60;;;4.43;;
20928;SDS011;21895;47.072;15.132;2023-05-02T10:12:19;7.70;;;4.30;;
20928;SDS011;21895;47.072;15.132;2023-05-02T10:14:56;5.67;;;4.30;;
20928;SDS011;21895;47.072;15.132;2023-05-02T10:17:33;7.70;;;4.50;;
20928;SDS011;21895;47.072;15.132;2023-05-02T10:20:12;4.57;;;3.85;;
20928;SDS011;21895;47.072;15.132;2023-05-02T10:22:46;6.00;;;4.00;;
20928;SDS011;21895;47.072;15.132;2023-05-02T10:25:16;6.12;;;4.50;;
20928;SDS011;21895;47.072;15.132;2023-05-02T10:27:43;7.28;;;4.62;;
20928;SDS011;21895;47.072;15.132;2023-05-02T10:30:11;5.78;;;4.30;;
20928;SDS011;21895;47.072;15.132;2023-05-02T10:32:39;13.38;;;4.68;;
20928;SDS011;21895;47.072;15.132;2023-05-02T10:35:08;5.57;;;3.42;;
20928;SDS011;21895;47.072;15.132;2023-05-02T10:37:36;4.28;;;3.10;;
20928;SDS011;21895;47.072;15.132;2023-05-02T10:40:08;8.90;;;3.22;;
20928;SDS011;21895;47.072;15.132;2023-05-02T10:42:37;3.55;;;2.60;;
20928;SDS011;21895;47.072;15.132;2023-05-02T10:45:11;5.68;;;2.45;;
20928;SDS011;21895;47.072;15.132;2023-05-02T10:52:45;2.78;;;2.35;;
20928;SDS011;21895;47.072;15.132;2023-05-02T10:55:13;3.50;;;2.53;;
20928;SDS011;21895;47.072;15.132;2023-05-02T11:01:30;9.75;;;2.72;;
20928;SDS011;21895;47.072;15.132;2023-05-02T11:04:01;5.00;;;2.67;;
20928;SDS011;21895;47.072;15.132;2023-05-02T11:06:34;7.00;;;2.47;;
20928;SDS011;21895;47.072;15.132;2023-05-02T11:12:04;3.28;;;2.15;;
20928;SDS011;21895;47.072;15.132;2023-05-02T11:17:35;3.03;;;2.25;;
20928;SDS011;21895;47.072;15.132;2023-05-02T11:20:28;4.20;;;2.12;;
20928;SDS011;21895;47.072;15.132;2023-05-02T11:22:57;5.60;;;2.28;;
20928;SDS011;21895;47.072;15.132;2023-05-02T11:25:49;3.80;;;2.65;;
20928;SDS011;21895;47.072;15.132;2023-05-02T11:28:39;4.65;;;2.45;;
20928;SDS011;21895;47.072;15.132;2023-05-02T11:36:01;2.95;;;2.10;;
20928;SDS011;21895;47.072;15.132;2023-05-02T11:38:35;2.85;;;2.12;;
20928;SDS011;21895;47.072;15.132;2023-05-02T11:41:03;3.10;;;2.35;;
20928;SDS011;21895;47.072;15.132;2023-05-02T11:43:30;2.97;;;2.20;;
20928;SDS011;21895;47.072;15.132;2023-05-02T11:45:58;3.62;;;2.00;;
20928;SDS011;21895;47.072;15.132;2023-05-02T11:48:26;3.35;;;2.53;;
20928;SDS011;21895;47.072;15.132;2023-05-02T11:50:54;3.30;;;2.10;;
20928;SDS011;21895;47.072;15.132;2023-05-02T11:53:27;2.28;;;2.08;;
20928;SDS011;21895;47.072;15.132;2023-05-02T11:56:03;2.70;;;2.10;;
20928;SDS011;21895;47.072;15.132;2023-05-02T11:58:30;3.90;;;2.37;;
20928;SDS011;21895;47.072;15.132;2023-05-02T12:00:58;2.58;;;2.22;;
20928;SDS011;21895;47.072;15.132;2023-05-02T12:03:40;3.58;;;1.90;;
20928;SDS011;21895;47.072;15.132;2023-05-02T12:06:11;2.17;;;1.70;;
20928;SDS011;21895;47.072;15.132;2023-05-02T12:08:41;1.60;;;1.50;;
20928;SDS011;21895;47.072;15.132;2023-05-02T12:11:11;2.53;;;1.60;;
20928;SDS011;21895;47.072;15.132;2023-05-02T12:13:43;2.25;;;1.62;;
20928;SDS011;21895;47.072;15.132;2023-05-02T12:16:12;2.58;;;1.60;;
20928;SDS011;21895;47.072;15.132;2023-05-02T12:18:39;1.75;;;1.40;;
20928;SDS011;21895;47.072;15.132;2023-05-02T12:21:06;2.47;;;1.73;;
20928;SDS011;21895;47.072;15.132;2023-05-02T12:23:33;1.48;;;1.30;;
20928;SDS011;21895;47.072;15.132;2023-05-02T12:26:23;1.20;;;1.10;;
20928;SDS011;21895;47.072;15.132;2023-05-02T12:28:54;1.83;;;1.40;;
20928;SDS011;21895;47.072;15.132;2023-05-02T12:31:21;1.35;;;1.12;;
20928;SDS011;21895;47.072;15.132;2023-05-02T12:33:48;1.73;;;1.08;;
20928;SDS011;21895;47.072;15.132;2023-05-02T12:36:17;1.12;;;1.02;;
20928;SDS011;21895;47.072;15.132;2023-05-02T12:38:47;2.17;;;1.20;;
20928;SDS011;21895;47.072;15.132;2023-05-02T12:41:33;1.37;;;1.23;;
20928;SDS011;21895;47.072;15.132;2023-05-02T12:44:02;1.50;;;1.33;;
20928;SDS011;21895;47.072;15.132;2023-05-02T12:46:30;1.10;;;1.00;;
20928;SDS011;21895;47.072;15.132;2023-05-02T12:49:01;7.43;;;1.25;;
20928;SDS011;21895;47.072;15.132;2023-05-02T12:51:33;0.90;;;0.90;;
20928;SDS011;21895;47.072;15.132;2023-05-02T12:54:01;3.35;;;0.77;;
20928;SDS011;21895;47.072;15.132;2023-05-02T12:56:28;1.08;;;1.02;;
20928;SDS011;21895;47.072;15.132;2023-05-02T12:58:59;1.17;;;0.90;;
20928;SDS011;21895;47.072;15.132;2023-05-02T13:01:25;4.12;;;0.80;;
20928;SDS011;21895;47.072;15.132;2023-05-02T13:03:53;5.68;;;1.00;;
20928;SDS011;21895;47.072;15.132;2023-05-02T13:06:19;1.83;;;0.88;;
20928;SDS011;21895;47.072;15.132;2023-05-02T13:08:46;0.95;;;0.80;;
20928;SDS011;21895;47.072;15.132;2023-05-02T13:11:12;5.35;;;1.08;;
20928;SDS011;21895;47.072;15.132;2023-05-02T13:13:39;2.53;;;1.67;;
20928;SDS011;21895;47.072;15.132;2023-05-02T13:16:05;3.97;;;1.62;;
20928;SDS011;21895;47.072;15.132;2023-05-02T13:18:33;3.10;;;0.90;;
20928;SDS011;21895;47.072;15.132;2023-05-02T13:20:59;3.23;;;1.83;;
20928;SDS011;21895;47.072;15.132;2023-05-02T13:23:26;1.83;;;1.50;;
20928;SDS011;21895;47.072;15.132;2023-05-02T13:25:52;3.78;;;1.42;;
20928;SDS011;21895;47.072;15.132;2023-05-02T13:28:19;3.83;;;1.60;;
20928;SDS011;21895;47.072;15.132;2023-05-02T13:30:45;1.77;;;1.20;;
20928;SDS011;21895;47.072;15.132;2023-05-02T13:33:12;1.30;;;0.80;;
20928;SDS011;21895;47.072;15.132;2023-05-02T13:35:38;2.62;;;0.80;;
20928;SDS011;21895;47.072;15.132;2023-05-02T13:38:05;0.97;;;0.90;;
20928;SDS011;21895;47.072;15.132;2023-05-02T13:40:31;1.37;;;0.95;;
20928;SDS011;21895;47.072;15.132;2023-05-02T13:42:58;0.80;;;0.80;;
20928;SDS011;21895;47.072;15.132;2023-05-02T13:45:24;0.80;;;0.80;;
20928;SDS011;21895;47.072;15.132;2023-05-02T13:47:51;1.70;;;0.90;;
20928;SDS011;21895;47.072;15.132;2023-05-02T13:50:18;8.20;;;1.20;;
20928;SDS011;21895;47.072;15.132;2023-05-02T13:52:44;1.00;;;0.90;;
20928;SDS011;21895;47.072;15.132;2023-05-02T13:55:14;1.20;;;1.10;;
20928;SDS011;21895;47.072;15.132;2023-05-02T13:57:40;3.72;;;1.20;;
20928;SDS011;21895;47.072;15.132;2023-05-02T14:00:07;5.07;;;1.50;;
20928;SDS011;21895;47.072;15.132;2023-05-02T14:02:35;3.12;;;1.20;;
20928;SDS011;21895;47.072;15.132;2023-05-02T14:05:02;1.65;;;1.37;;
20928;SDS011;21895;47.072;15.132;2023-05-02T14:07:28;3.28;;;1.20;;
20928;SDS011;21895;47.072;15.132;2023-05-02T14:09:57;3.23;;;1.27;;
20928;SDS011;21895;47.072;15.132;2023-05-02T14:12:23;1.25;;;0.95;;
20928;SDS011;21895;47.072;15.132;2023-05-02T14:14:50;2.28;;;1.20;;
20928;SDS011;21895;47.072;15.132;2023-05-02T14:17:17;1.57;;;1.03;;
20928;SDS011;21895;47.072;15.132;2023-05-02T14:19:43;1.48;;;1.05;;
20928;SDS011;21895;47.072;15.132;2023-05-02T14:22:10;2.33;;;1.60;;
20928;SDS011;21895;47.072;15.132;2023-05-02T14:24:36;4.37;;;2.03;;
20928;SDS011;21895;47.072;15.132;2023-05-02T14:27:03;2.58;;;1.50;;
20928;SDS011;21895;47.072;15.132;2023-05-02T14:29:31;2.40;;;1.50;;
20928;SDS011;21895;47.072;15.132;2023-05-02T14:31:57;1.55;;;0.85;;
20928;SDS011;21895;47.072;15.132;2023-05-02T14:34:24;6.07;;;1.20;;
20928;SDS011;21895;47.072;15.132;2023-05-02T14:36:51;2.67;;;0.75;;
20928;SDS011;21895;47.072;15.132;2023-05-02T14:39:18;2.20;;;0.98;;
20928;SDS011;21895;47.072;15.132;2023-05-02T14:41:47;2.13;;;1.00;;
20928;SDS011;21895;47.072;15.132;2023-05-02T14:44:14;0.80;;;0.70;;
20928;SDS011;21895;47.072;15.132;2023-05-02T14:46:40;2.67;;;0.80;;
20928;SDS011;21895;47.072;15.132;2023-05-02T14:49:07;3.40;;;0.90;;
20928;SDS011;21895;47.072;15.132;2023-05-02T14:51:36;2.10;;;1.20;;
20928;SDS011;21895;47.072;15.132;2023-05-02T14:54:07;1.83;;;1.20;;
20928;SDS011;21895;47.072;15.132;2023-05-02T14:56:33;2.50;;;1.08;;
20928;SDS011;21895;47.072;15.132;2023-05-02T14:59:00;2.33;;;0.87;;
20928;SDS011;21895;47.072;15.132;2023-05-02T15:01:26;1.33;;;0.82;;
20928;SDS011;21895;47.072;15.132;2023-05-02T15:03:54;5.70;;;0.77;;
20928;SDS011;21895;47.072;15.132;2023-05-02T15:06:33;5.30;;;0.80;;
20928;SDS011;21895;47.072;15.132;2023-05-02T15:09:00;8.83;;;2.70;;
20928;SDS011;21895;47.072;15.132;2023-05-02T15:11:27;2.70;;;1.92;;